sensor_id;sensor_type;location;lat;lon;timestamp;pressure;altitude;pressure_sealevel;temperature;humidity
50322;BME280;36227;53.366;-1.426;2022-09-21T00:00:40;75788.66;;;-218.02;89.51
50322;BME280;36227;53.366;-1.426;2022-09-21T00:03:06;75795.10;;;-218.02;90.14
50322;BME280;36227;53.366;-1.426;2022-09-21T00:05:31;75834.39;;;-217.78;91.43
50322;BME280;36227;53.366;-1.426;2022-09-21T00:07:59;75842.48;;;-217.78;92.19
50322;BME280;36227;53.366;-1.426;2022-09-21T00:10:22;75865.34;;;-218.26;93.26
50322;BME280;36227;53.366;-1.426;2022-09-21T00:12:47;75881.39;;;-218.26;94.38
50322;BME280;36227;53.366;-1.426;2022-09-21T00:15:14;75922.95;;;-217.78;97.29
50322;BME280;36227;53.366;-1.426;2022-09-21T00:17:38;75927.12;;;-217.54;98.25
50322;BME280;36227;53.366;-1.426;2022-09-21T00:20:04;75941.90;;;-217.54;99.14
50322;BME280;36227;53.366;-1.426;2022-09-21T00:22:29;75892.76;;;-217.78;97.61
50322;BME280;36227;53.366;-1.426;2022-09-21T00:24:55;75849.05;;;-217.78;94.98
50322;BME280;36227;53.366;-1.426;2022-09-21T00:27:21;75817.21;;;-217.78;92.53
50322;BME280;36227;53.366;-1.426;2022-09-21T00:29:46;75812.16;;;-218.02;91.60
50322;BME280;36227;53.366;-1.426;2022-09-21T00:32:12;75755.81;;;-218.74;89.56
50322;BME280;36227;53.366;-1.426;2022-09-21T00:34:37;75752.53;;;-218.74;88.35
50322;BME280;36227;53.366;-1.426;2022-09-21T00:37:03;75746.08;;;-218.26;87.62
50322;BME280;36227;53.366;-1.426;2022-09-21T00:39:28;75768.82;;;-218.26;88.42
50322;BME280;36227;53.366;-1.426;2022-09-21T00:41:53;75737.49;;;-218.02;88.11
50322;BME280;36227;53.366;-1.426;2022-09-21T00:44:27;75730.92;;;-218.02;87.79
50322;BME280;36227;53.366;-1.426;2022-09-21T00:46:46;75755.18;;;-218.26;87.49
50322;BME280;36227;53.366;-1.426;2022-09-21T00:49:10;75795.10;;;-217.78;89.71
50322;BME280;36227;53.366;-1.426;2022-09-21T00:51:36;75744.82;;;-218.26;88.17
50322;BME280;36227;53.366;-1.426;2022-09-21T00:54:04;75809.00;;;-218.50;90.24
50322;BME280;36227;53.366;-1.426;2022-09-21T00:56:27;75703.89;;;-219.22;87.98
50322;BME280;36227;53.366;-1.426;2022-09-21T00:58:53;75659.80;;;-218.74;85.43
50322;BME280;36227;53.366;-1.426;2022-09-21T01:01:17;75613.94;;;-218.74;82.45
50322;BME280;36227;53.366;-1.426;2022-09-21T01:03:43;75680.14;;;-218.26;84.46
50322;BME280;36227;53.366;-1.426;2022-09-21T01:06:07;75732.82;;;-218.26;86.18
50322;BME280;36227;53.366;-1.426;2022-09-21T01:08:32;75711.72;;;-218.26;86.00
50322;BME280;36227;53.366;-1.426;2022-09-21T01:11:21;75731.93;;;-218.26;87.22
50322;BME280;36227;53.366;-1.426;2022-09-21T01:13:32;75735.72;;;-218.50;89.57
50322;BME280;36227;53.366;-1.426;2022-09-21T01:15:53;75637.57;;;-218.50;84.32
50322;BME280;36227;53.366;-1.426;2022-09-21T01:18:19;75646.79;;;-218.74;84.25
50322;BME280;36227;53.366;-1.426;2022-09-21T01:23:15;75573.77;;;-219.22;80.25
50322;BME280;36227;53.366;-1.426;2022-09-21T01:25:37;75542.44;;;-218.98;78.40
50322;BME280;36227;53.366;-1.426;2022-09-21T01:28:04;75558.74;;;-218.74;78.83
50322;BME280;36227;53.366;-1.426;2022-09-21T01:30:22;75533.72;;;-218.74;78.02
50322;BME280;36227;53.366;-1.426;2022-09-21T01:32:56;75511.24;;;-218.98;77.16
50322;BME280;36227;53.366;-1.426;2022-09-21T01:35:15;75508.46;;;-218.74;76.90
50322;BME280;36227;53.366;-1.426;2022-09-21T01:37:41;75525.26;;;-218.74;77.23
50322;BME280;36227;53.366;-1.426;2022-09-21T01:40:07;75566.32;;;-218.98;78.22
50322;BME280;36227;53.366;-1.426;2022-09-21T01:42:29;75540.17;;;-218.98;77.95
50322;BME280;36227;53.366;-1.426;2022-09-21T01:44:55;75629.10;;;-219.22;80.00
50322;BME280;36227;53.366;-1.426;2022-09-21T01:47:19;75786.89;;;-218.50;86.09
50322;BME280;36227;53.366;-1.426;2022-09-21T01:49:46;75883.54;;;-217.78;92.12
50322;BME280;36227;53.366;-1.426;2022-09-21T01:52:13;75867.49;;;-217.78;93.37
50322;BME280;36227;53.366;-1.426;2022-09-21T01:54:38;75854.23;;;-217.78;92.49
50322;BME280;36227;53.366;-1.426;2022-09-21T01:57:05;75876.71;;;-217.30;93.78
50322;BME280;36227;53.366;-1.426;2022-09-21T01:59:31;75853.72;;;-217.78;94.26
50322;BME280;36227;53.366;-1.426;2022-09-21T02:01:55;75885.05;;;-217.78;95.31
50322;BME280;36227;53.366;-1.426;2022-09-21T02:04:18;75905.65;;;-217.78;96.40
50322;BME280;36227;53.366;-1.426;2022-09-21T02:06:49;75955.30;;;-218.02;99.57
50322;BME280;36227;53.366;-1.426;2022-09-21T02:09:08;75944.30;;;-217.78;100.00
50322;BME280;36227;53.366;-1.426;2022-09-21T02:11:33;75915.88;;;-217.30;99.01
50322;BME280;36227;53.366;-1.426;2022-09-21T02:13:58;75920.17;;;-217.54;98.80
50322;BME280;36227;53.366;-1.426;2022-09-21T02:16:33;75915.37;;;-217.30;98.47
50322;BME280;36227;53.366;-1.426;2022-09-21T02:18:58;75941.53;;;-217.30;99.78
50322;BME280;36227;53.366;-1.426;2022-09-21T02:21:20;75949.86;;;-217.30;100.00
50322;BME280;36227;53.366;-1.426;2022-09-21T02:23:44;76004.19;;;-217.07;100.00
50322;BME280;36227;53.366;-1.426;2022-09-21T02:26:08;75992.95;;;-217.30;100.00
50322;BME280;36227;53.366;-1.426;2022-09-21T02:28:36;76012.53;;;-217.78;100.00
50322;BME280;36227;53.366;-1.426;2022-09-21T02:31:03;75994.08;;;-218.02;99.07
50322;BME280;36227;53.366;-1.426;2022-09-21T02:33:25;75983.98;;;-217.30;97.23
50322;BME280;36227;53.366;-1.426;2022-09-21T02:35:50;76033.12;;;-217.07;98.38
50322;BME280;36227;53.366;-1.426;2022-09-21T02:38:18;76071.66;;;-216.83;100.00
50322;BME280;36227;53.366;-1.426;2022-09-21T02:40:39;76049.67;;;-216.83;100.00
50322;BME280;36227;53.366;-1.426;2022-09-21T02:43:08;76095.16;;;-216.35;100.00
50322;BME280;36227;53.366;-1.426;2022-09-21T02:45:31;76103.87;;;-216.83;100.00
50322;BME280;36227;53.366;-1.426;2022-09-21T02:47:58;76116.51;;;-216.59;100.00
50322;BME280;36227;53.366;-1.426;2022-09-21T02:50:23;76129.90;;;-216.35;100.00
50322;BME280;36227;53.366;-1.426;2022-09-21T02:52:45;76171.47;;;-216.83;100.00
50322;BME280;36227;53.366;-1.426;2022-09-21T02:55:12;76119.04;;;-216.83;100.00
50322;BME280;36227;53.366;-1.426;2022-09-21T02:57:37;76135.97;;;-216.83;100.00
50322;BME280;36227;53.366;-1.426;2022-09-21T03:00:01;76184.61;;;-216.35;100.00
50322;BME280;36227;53.366;-1.426;2022-09-21T03:02:34;76191.18;;;-216.35;100.00
50322;BME280;36227;53.366;-1.426;2022-09-21T03:04:51;76208.24;;;-216.11;100.00
50322;BME280;36227;53.366;-1.426;2022-09-21T03:07:17;76222.64;;;-216.35;100.00
50322;BME280;36227;53.366;-1.426;2022-09-21T03:09:43;76246.52;;;-215.87;100.00
50322;BME280;36227;53.366;-1.426;2022-09-21T03:12:08;76241.46;;;-216.11;100.00
50322;BME280;36227;53.366;-1.426;2022-09-21T03:14:33;76214.55;;;-216.59;100.00
50322;BME280;36227;53.366;-1.426;2022-09-21T03:16:59;76202.93;;;-216.83;100.00
50322;BME280;36227;53.366;-1.426;2022-09-21T03:19:24;76186.76;;;-216.35;100.00
50322;BME280;36227;53.366;-1.426;2022-09-21T03:21:49;76191.81;;;-216.35;100.00
50322;BME280;36227;53.366;-1.426;2022-09-21T03:24:15;76185.49;;;-216.35;100.00
50322;BME280;36227;53.366;-1.426;2022-09-21T03:26:40;76167.55;;;-216.35;100.00
50322;BME280;36227;53.366;-1.426;2022-09-21T03:29:05;76142.79;;;-216.35;100.00
50322;BME280;36227;53.366;-1.426;2022-09-21T03:31:30;76169.19;;;-216.11;100.00
50322;BME280;36227;53.366;-1.426;2022-09-21T03:33:56;76246.14;;;-215.87;100.00
50322;BME280;36227;53.366;-1.426;2022-09-21T03:36:21;76243.49;;;-215.87;100.00
50322;BME280;36227;53.366;-1.426;2022-09-21T03:38:47;76236.79;;;-216.35;100.00
50322;BME280;36227;53.366;-1.426;2022-09-21T03:41:12;76257.38;;;-216.35;100.00
50322;BME280;36227;53.366;-1.426;2022-09-21T03:43:38;76292.00;;;-215.87;100.00
50322;BME280;36227;53.366;-1.426;2022-09-21T03:46:04;76262.06;;;-216.11;100.00
50322;BME280;36227;53.366;-1.426;2022-09-21T03:48:29;76288.34;;;-215.87;100.00
50322;BME280;36227;53.366;-1.426;2022-09-21T03:50:54;76289.48;;;-215.87;100.00
50322;BME280;36227;53.366;-1.426;2022-09-21T03:53:19;76276.59;;;-215.87;100.00
50322;BME280;36227;53.366;-1.426;2022-09-21T03:55:45;76294.66;;;-215.39;100.00
50322;BME280;36227;53.366;-1.426;2022-09-21T03:58:11;76284.68;;;-215.63;100.00
50322;BME280;36227;53.366;-1.426;2022-09-21T04:00:36;76272.55;;;-216.35;100.00
50322;BME280;36227;53.366;-1.426;2022-09-21T04:03:01;76273.81;;;-216.35;100.00
50322;BME280;36227;53.366;-1.426;2022-09-21T04:05:27;76290.74;;;-215.87;100.00
50322;BME280;36227;53.366;-1.426;2022-09-21T04:07:53;76295.42;;;-215.87;100.00
50322;BME280;36227;53.366;-1.426;2022-09-21T04:10:19;76300.22;;;-215.39;100.00
50322;BME280;36227;53.366;-1.426;2022-09-21T04:12:44;76295.67;;;-215.87;100.00
50322;BME280;36227;53.366;-1.426;2022-09-21T04:15:11;76326.25;;;-215.63;100.00
50322;BME280;36227;53.366;-1.426;2022-09-21T04:17:35;76283.16;;;-215.87;100.00
50322;BME280;36227;53.366;-1.426;2022-09-21T04:20:01;76265.22;;;-215.87;100.00
50322;BME280;36227;53.366;-1.426;2022-09-21T04:22:27;76282.53;;;-216.11;100.00
50322;BME280;36227;53.366;-1.426;2022-09-21T04:24:52;76266.48;;;-216.59;100.00
50322;BME280;36227;53.366;-1.426;2022-09-21T04:27:17;76283.67;;;-216.11;100.00
50322;BME280;36227;53.366;-1.426;2022-09-21T04:29:42;76277.47;;;-215.87;100.00
50322;BME280;36227;53.366;-1.426;2022-09-21T04:32:08;76279.75;;;-215.87;100.00
50322;BME280;36227;53.366;-1.426;2022-09-21T04:34:33;76280.25;;;-215.87;100.00
50322;BME280;36227;53.366;-1.426;2022-09-21T04:36:58;76281.01;;;-215.87;100.00
50322;BME280;36227;53.366;-1.426;2022-09-21T04:39:25;76274.57;;;-215.87;100.00
50322;BME280;36227;53.366;-1.426;2022-09-21T04:41:48;76282.65;;;-215.63;100.00
50322;BME280;36227;53.366;-1.426;2022-09-21T04:44:14;76223.90;;;-216.35;100.00
50322;BME280;36227;53.366;-1.426;2022-09-21T04:46:40;76248.16;;;-216.35;100.00
50322;BME280;36227;53.366;-1.426;2022-09-21T04:49:05;76224.28;;;-216.35;100.00
50322;BME280;36227;53.366;-1.426;2022-09-21T04:51:30;76259.28;;;-215.87;100.00
50322;BME280;36227;53.366;-1.426;2022-09-21T04:53:55;76227.69;;;-216.35;100.00
50322;BME280;36227;53.366;-1.426;2022-09-21T04:56:21;76216.32;;;-216.11;100.00
50322;BME280;36227;53.366;-1.426;2022-09-21T04:58:47;76187.51;;;-216.11;100.00
50322;BME280;36227;53.366;-1.426;2022-09-21T05:01:13;76180.69;;;-216.35;100.00
50322;BME280;36227;53.366;-1.426;2022-09-21T05:03:38;76241.46;;;-215.87;100.00
50322;BME280;36227;53.366;-1.426;2022-09-21T05:06:04;76211.01;;;-216.11;100.00
50322;BME280;36227;53.366;-1.426;2022-09-21T05:08:29;76258.40;;;-216.11;100.00
50322;BME280;36227;53.366;-1.426;2022-09-21T05:10:54;76255.74;;;-216.59;100.00
50322;BME280;36227;53.366;-1.426;2022-09-21T05:13:20;76230.60;;;-216.11;100.00
50322;BME280;36227;53.366;-1.426;2022-09-21T05:15:45;76175.13;;;-216.35;100.00
50322;BME280;36227;53.366;-1.426;2022-09-21T05:18:10;76203.94;;;-216.35;100.00
50322;BME280;36227;53.366;-1.426;2022-09-21T05:20:35;76208.49;;;-216.11;100.00
50322;BME280;36227;53.366;-1.426;2022-09-21T05:23:01;76235.78;;;-215.87;100.00
50322;BME280;36227;53.366;-1.426;2022-09-21T05:25:30;76171.47;;;-216.35;100.00
50322;BME280;36227;53.366;-1.426;2022-09-21T05:27:52;76177.79;;;-216.11;100.00
50322;BME280;36227;53.366;-1.426;2022-09-21T05:30:19;76194.34;;;-216.11;100.00
50322;BME280;36227;53.366;-1.426;2022-09-21T05:32:47;76252.08;;;-216.35;100.00
50322;BME280;36227;53.366;-1.426;2022-09-21T05:35:16;76245.76;;;-216.35;100.00
50322;BME280;36227;53.366;-1.426;2022-09-21T05:37:46;76202.68;;;-216.35;100.00
50322;BME280;36227;53.366;-1.426;2022-09-21T05:40:00;76210.26;;;-216.11;100.00
50322;BME280;36227;53.366;-1.426;2022-09-21T05:42:25;76203.18;;;-215.87;100.00
50322;BME280;36227;53.366;-1.426;2022-09-21T05:44:50;76185.37;;;-216.11;100.00
50322;BME280;36227;53.366;-1.426;2022-09-21T05:47:23;76215.69;;;-216.11;100.00
50322;BME280;36227;53.366;-1.426;2022-09-21T05:49:50;76212.40;;;-216.11;100.00
50322;BME280;36227;53.366;-1.426;2022-09-21T05:52:13;76210.26;;;-216.11;100.00
50322;BME280;36227;53.366;-1.426;2022-09-21T05:54:41;76179.30;;;-216.35;100.00
50322;BME280;36227;53.366;-1.426;2022-09-21T05:57:00;76198.63;;;-216.83;100.00
50322;BME280;36227;53.366;-1.426;2022-09-21T05:59:33;76196.48;;;-216.35;100.00
50322;BME280;36227;53.366;-1.426;2022-09-21T06:01:57;76160.22;;;-216.35;100.00
50322;BME280;36227;53.366;-1.426;2022-09-21T06:04:14;76192.57;;;-216.11;100.00
50322;BME280;36227;53.366;-1.426;2022-09-21T06:06:39;76206.97;;;-216.35;100.00
50322;BME280;36227;53.366;-1.426;2022-09-21T06:09:04;76199.01;;;-216.35;100.00
50322;BME280;36227;53.366;-1.426;2022-09-21T06:11:30;76236.28;;;-216.35;100.00
50322;BME280;36227;53.366;-1.426;2022-09-21T06:13:55;76208.24;;;-216.11;100.00
50322;BME280;36227;53.366;-1.426;2022-09-21T06:16:21;76215.69;;;-216.11;100.00
50322;BME280;36227;53.366;-1.426;2022-09-21T06:18:46;76235.91;;;-216.83;100.00
50322;BME280;36227;53.366;-1.426;2022-09-21T06:21:12;76244.24;;;-216.35;100.00
50322;BME280;36227;53.366;-1.426;2022-09-21T06:23:37;76269.39;;;-216.11;100.00
50322;BME280;36227;53.366;-1.426;2022-09-21T06:26:04;76218.72;;;-216.35;100.00
50322;BME280;36227;53.366;-1.426;2022-09-21T06:28:29;76228.07;;;-216.11;100.00
50322;BME280;36227;53.366;-1.426;2022-09-21T06:30:55;76239.06;;;-215.87;100.00
50322;BME280;36227;53.366;-1.426;2022-09-21T06:33:20;76198.38;;;-216.11;100.00
50322;BME280;36227;53.366;-1.426;2022-09-21T06:35:51;76180.94;;;-216.35;100.00
50322;BME280;36227;53.366;-1.426;2022-09-21T06:38:10;76212.15;;;-216.11;100.00
50322;BME280;36227;53.366;-1.426;2022-09-21T06:40:36;76218.60;;;-216.83;100.00
50322;BME280;36227;53.366;-1.426;2022-09-21T06:43:03;76202.30;;;-216.83;100.00
50322;BME280;36227;53.366;-1.426;2022-09-21T06:45:28;76235.65;;;-216.11;100.00
50322;BME280;36227;53.366;-1.426;2022-09-21T06:47:52;76232.87;;;-216.11;100.00
50322;BME280;36227;53.366;-1.426;2022-09-21T06:50:18;76219.48;;;-216.35;100.00
50322;BME280;36227;53.366;-1.426;2022-09-21T06:52:43;76189.91;;;-216.35;100.00
50322;BME280;36227;53.366;-1.426;2022-09-21T06:55:08;76171.09;;;-216.35;100.00
50322;BME280;36227;53.366;-1.426;2022-09-21T06:57:34;76196.23;;;-216.11;100.00
50322;BME280;36227;53.366;-1.426;2022-09-21T07:00:00;76210.38;;;-216.35;100.00
50322;BME280;36227;53.366;-1.426;2022-09-21T07:02:26;76205.46;;;-216.35;100.00
50322;BME280;36227;53.366;-1.426;2022-09-21T07:04:50;76191.94;;;-217.07;100.00
50322;BME280;36227;53.366;-1.426;2022-09-21T07:07:16;76280.51;;;-215.87;100.00
50322;BME280;36227;53.366;-1.426;2022-09-21T07:09:42;76264.97;;;-215.87;100.00
50322;BME280;36227;53.366;-1.426;2022-09-21T07:12:07;76258.65;;;-215.87;100.00
50322;BME280;36227;53.366;-1.426;2022-09-21T07:14:33;76241.84;;;-215.87;100.00
50322;BME280;36227;53.366;-1.426;2022-09-21T07:16:58;76234.64;;;-215.87;100.00
50322;BME280;36227;53.366;-1.426;2022-09-21T07:19:23;76218.34;;;-216.35;100.00
50322;BME280;36227;53.366;-1.426;2022-09-21T07:21:49;76272.93;;;-215.63;100.00
50322;BME280;36227;53.366;-1.426;2022-09-21T07:24:14;76280.51;;;-215.87;100.00
50322;BME280;36227;53.366;-1.426;2022-09-21T07:26:40;76287.33;;;-216.35;100.00
50322;BME280;36227;53.366;-1.426;2022-09-21T07:29:06;76252.58;;;-216.35;100.00
50322;BME280;36227;53.366;-1.426;2022-09-21T07:31:31;76272.80;;;-216.35;100.00
50322;BME280;36227;53.366;-1.426;2022-09-21T07:33:57;76264.33;;;-215.87;100.00
50322;BME280;36227;53.366;-1.426;2022-09-21T07:36:22;76258.14;;;-215.87;100.00
50322;BME280;36227;53.366;-1.426;2022-09-21T07:38:48;76316.90;;;-215.63;100.00
50322;BME280;36227;53.366;-1.426;2022-09-21T07:41:14;76282.40;;;-215.87;100.00
50322;BME280;36227;53.366;-1.426;2022-09-21T07:43:39;76248.03;;;-215.87;100.00
50322;BME280;36227;53.366;-1.426;2022-09-21T07:46:05;76215.31;;;-216.11;100.00
50322;BME280;36227;53.366;-1.426;2022-09-21T07:48:30;76213.54;;;-216.59;100.00
50322;BME280;36227;53.366;-1.426;2022-09-21T07:51:00;76224.28;;;-216.59;100.00
50322;BME280;36227;53.366;-1.426;2022-09-21T07:53:21;76240.96;;;-215.87;100.00
50322;BME280;36227;53.366;-1.426;2022-09-21T07:55:47;76212.91;;;-215.87;100.00
50322;BME280;36227;53.366;-1.426;2022-09-21T07:58:12;76206.72;;;-216.11;100.00
50322;BME280;36227;53.366;-1.426;2022-09-21T08:00:38;76213.29;;;-216.11;100.00
50322;BME280;36227;53.366;-1.426;2022-09-21T08:03:03;76249.05;;;-215.87;100.00
50322;BME280;36227;53.366;-1.426;2022-09-21T08:05:28;76245.26;;;-215.87;100.00
50322;BME280;36227;53.366;-1.426;2022-09-21T08:07:55;76228.32;;;-216.11;100.00
50322;BME280;36227;53.366;-1.426;2022-09-21T08:10:20;76192.06;;;-216.59;100.00
50322;BME280;36227;53.366;-1.426;2022-09-21T08:12:45;76196.86;;;-216.83;100.00
50322;BME280;36227;53.366;-1.426;2022-09-21T08:15:10;76203.31;;;-216.35;100.00
50322;BME280;36227;53.366;-1.426;2022-09-21T08:17:37;76204.70;;;-216.11;100.00
50322;BME280;36227;53.366;-1.426;2022-09-21T08:20:01;76165.91;;;-216.11;100.00
50322;BME280;36227;53.366;-1.426;2022-09-21T08:22:26;76124.22;;;-216.35;100.00
50322;BME280;36227;53.366;-1.426;2022-09-21T08:24:51;76151.25;;;-216.11;100.00
50322;BME280;36227;53.366;-1.426;2022-09-21T08:27:17;76098.06;;;-216.35;100.00
50322;BME280;36227;53.366;-1.426;2022-09-21T08:29:42;76071.28;;;-216.59;100.00
50322;BME280;36227;53.366;-1.426;2022-09-21T08:32:09;76166.16;;;-216.11;100.00
50322;BME280;36227;53.366;-1.426;2022-09-21T08:34:34;76099.83;;;-217.07;100.00
50322;BME280;36227;53.366;-1.426;2022-09-21T08:36:59;76102.10;;;-216.59;100.00
50322;BME280;36227;53.366;-1.426;2022-09-21T08:39:24;76115.12;;;-216.35;100.00
50322;BME280;36227;53.366;-1.426;2022-09-21T08:42:03;76143.80;;;-215.87;100.00
50322;BME280;36227;53.366;-1.426;2022-09-21T08:44:18;76157.06;;;-216.11;100.00
50322;BME280;36227;53.366;-1.426;2022-09-21T08:46:41;76120.93;;;-216.35;100.00
50322;BME280;36227;53.366;-1.426;2022-09-21T08:49:11;76127.37;;;-216.11;100.00
50322;BME280;36227;53.366;-1.426;2022-09-21T08:51:35;76137.86;;;-216.11;100.00
50322;BME280;36227;53.366;-1.426;2022-09-21T08:54:00;76150.24;;;-215.87;100.00
50322;BME280;36227;53.366;-1.426;2022-09-21T08:56:25;76107.16;;;-216.83;100.00
50322;BME280;36227;53.366;-1.426;2022-09-21T08:58:48;76091.37;;;-216.83;100.00
50322;BME280;36227;53.366;-1.426;2022-09-21T09:01:29;76180.82;;;-215.87;100.00
50322;BME280;36227;53.366;-1.426;2022-09-21T09:03:51;76192.44;;;-215.87;100.00
50322;BME280;36227;53.366;-1.426;2022-09-21T09:06:07;76195.85;;;-215.87;100.00
50322;BME280;36227;53.366;-1.426;2022-09-21T09:08:48;76223.27;;;-215.87;100.00
50322;BME280;36227;53.366;-1.426;2022-09-21T09:11:03;76187.77;;;-216.11;100.00
50322;BME280;36227;53.366;-1.426;2022-09-21T09:13:38;76247.66;;;-215.39;100.00
50322;BME280;36227;53.366;-1.426;2022-09-21T09:15:54;76217.84;;;-215.87;100.00
50322;BME280;36227;53.366;-1.426;2022-09-21T09:18:17;76209.37;;;-216.35;100.00
50322;BME280;36227;53.366;-1.426;2022-09-21T09:20:39;76210.51;;;-216.11;100.00
50322;BME280;36227;53.366;-1.426;2022-09-21T09:23:06;76235.53;;;-215.87;100.00
50322;BME280;36227;53.366;-1.426;2022-09-21T09:25:33;76194.97;;;-215.87;100.00
50322;BME280;36227;53.366;-1.426;2022-09-21T09:27:56;76197.75;;;-215.63;100.00
50322;BME280;36227;53.366;-1.426;2022-09-21T09:30:19;76214.05;;;-215.87;100.00
50322;BME280;36227;53.366;-1.426;2022-09-21T09:32:48;76185.11;;;-216.11;100.00
50322;BME280;36227;53.366;-1.426;2022-09-21T09:35:18;76186.12;;;-215.87;100.00
50322;BME280;36227;53.366;-1.426;2022-09-21T09:37:39;76183.22;;;-215.87;100.00
50322;BME280;36227;53.366;-1.426;2022-09-21T09:40:00;76145.31;;;-216.11;100.00
50322;BME280;36227;53.366;-1.426;2022-09-21T09:42:36;76151.25;;;-216.59;100.00
50322;BME280;36227;53.366;-1.426;2022-09-21T09:45:10;76129.27;;;-216.35;100.00
50322;BME280;36227;53.366;-1.426;2022-09-21T09:47:25;76157.32;;;-216.11;100.00
50322;BME280;36227;53.366;-1.426;2022-09-21T09:49:50;76148.73;;;-216.11;100.00
50322;BME280;36227;53.366;-1.426;2022-09-21T09:52:09;76109.81;;;-216.35;100.00
50322;BME280;36227;53.366;-1.426;2022-09-21T09:54:33;76141.27;;;-216.11;100.00
50322;BME280;36227;53.366;-1.426;2022-09-21T09:56:57;76113.85;;;-216.35;100.00
50322;BME280;36227;53.366;-1.426;2022-09-21T09:59:27;76104.51;;;-216.11;100.00
50322;BME280;36227;53.366;-1.426;2022-09-21T10:01:58;76088.21;;;-216.35;100.00
50322;BME280;36227;53.366;-1.426;2022-09-21T10:04:16;76073.30;;;-216.59;100.00
50322;BME280;36227;53.366;-1.426;2022-09-21T10:06:39;76083.41;;;-217.07;100.00
50322;BME280;36227;53.366;-1.426;2022-09-21T10:09:18;76083.03;;;-216.83;100.00
50322;BME280;36227;53.366;-1.426;2022-09-21T10:11:35;76085.30;;;-216.59;100.00
50322;BME280;36227;53.366;-1.426;2022-09-21T10:13:54;76112.97;;;-216.11;100.00
50322;BME280;36227;53.366;-1.426;2022-09-21T10:16:21;76075.95;;;-216.35;100.00
50322;BME280;36227;53.366;-1.426;2022-09-21T10:18:47;76062.18;;;-216.35;100.00
50322;BME280;36227;53.366;-1.426;2022-09-21T10:21:16;76047.15;;;-216.35;100.00
50322;BME280;36227;53.366;-1.426;2022-09-21T10:23:36;76006.21;;;-216.35;100.00
50322;BME280;36227;53.366;-1.426;2022-09-21T10:26:03;76073.17;;;-215.87;100.00
50322;BME280;36227;53.366;-1.426;2022-09-21T10:28:27;76029.21;;;-216.83;100.00
50322;BME280;36227;53.366;-1.426;2022-09-21T10:31:08;76009.12;;;-217.07;100.00
50322;BME280;36227;53.366;-1.426;2022-09-21T10:33:19;76006.59;;;-216.83;100.00
50322;BME280;36227;53.366;-1.426;2022-09-21T10:35:48;76021.12;;;-216.35;100.00
50322;BME280;36227;53.366;-1.426;2022-09-21T10:38:09;75991.05;;;-216.35;100.00
50322;BME280;36227;53.366;-1.426;2022-09-21T10:40:36;76013.79;;;-216.59;100.00
50322;BME280;36227;53.366;-1.426;2022-09-21T10:42:58;75963.76;;;-216.35;100.00
50322;BME280;36227;53.366;-1.426;2022-09-21T10:45:25;75968.18;;;-216.35;100.00
50322;BME280;36227;53.366;-1.426;2022-09-21T10:47:51;75929.14;;;-216.83;100.00
50322;BME280;36227;53.366;-1.426;2022-09-21T10:50:23;75871.53;;;-217.07;100.00
50322;BME280;36227;53.366;-1.426;2022-09-21T10:52:42;75873.56;;;-217.78;100.00
50322;BME280;36227;53.366;-1.426;2022-09-21T10:55:13;75878.61;;;-217.30;100.00
50322;BME280;36227;53.366;-1.426;2022-09-21T10:57:31;75842.35;;;-217.30;100.00
50322;BME280;36227;53.366;-1.426;2022-09-21T10:59:56;75848.79;;;-216.83;100.00
50322;BME280;36227;53.366;-1.426;2022-09-21T11:02:25;75856.37;;;-217.07;100.00
50322;BME280;36227;53.366;-1.426;2022-09-21T11:04:49;75860.80;;;-216.83;100.00
50322;BME280;36227;53.366;-1.426;2022-09-21T11:07:16;75937.61;;;-216.59;100.00
50322;BME280;36227;53.366;-1.426;2022-09-21T11:09:40;75851.70;;;-216.83;99.87
50322;BME280;36227;53.366;-1.426;2022-09-21T11:12:09;75830.22;;;-216.83;93.54
50322;BME280;36227;53.366;-1.426;2022-09-21T11:14:38;75814.68;;;-217.30;96.29
50322;BME280;36227;53.366;-1.426;2022-09-21T11:16:56;75837.68;;;-217.30;88.79
50322;BME280;36227;53.366;-1.426;2022-09-21T11:19:26;75825.80;;;-217.07;86.52
50322;BME280;36227;53.366;-1.426;2022-09-21T11:21:49;75815.95;;;-216.83;87.18
50322;BME280;36227;53.366;-1.426;2022-09-21T11:24:16;75762.51;;;-217.07;85.89
50322;BME280;36227;53.366;-1.426;2022-09-21T11:26:36;75807.36;;;-216.83;85.72
50322;BME280;36227;53.366;-1.426;2022-09-21T11:29:02;75744.95;;;-217.30;85.10
50322;BME280;36227;53.366;-1.426;2022-09-21T11:31:35;75773.88;;;-217.07;85.21
50322;BME280;36227;53.366;-1.426;2022-09-21T11:34:02;75848.29;;;-216.35;86.07
50322;BME280;36227;53.366;-1.426;2022-09-21T11:36:19;75869.26;;;-216.35;85.77
50322;BME280;36227;53.366;-1.426;2022-09-21T11:38:47;75836.41;;;-217.30;84.97
50322;BME280;36227;53.366;-1.426;2022-09-21T11:41:15;75826.05;;;-217.30;84.83
50322;BME280;36227;53.366;-1.426;2022-09-21T11:43:39;75852.71;;;-217.07;84.51
50322;BME280;36227;53.366;-1.426;2022-09-21T11:46:01;75836.41;;;-216.83;84.59
50322;BME280;36227;53.366;-1.426;2022-09-21T11:48:26;75800.91;;;-217.07;84.49
50322;BME280;36227;53.366;-1.426;2022-09-21T11:50:52;75824.92;;;-216.83;84.91
50322;BME280;36227;53.366;-1.426;2022-09-21T11:53:20;75815.95;;;-217.07;84.63
50322;BME280;36227;53.366;-1.426;2022-09-21T11:55:47;75826.18;;;-217.07;84.62
50322;BME280;36227;53.366;-1.426;2022-09-21T11:58:06;75805.71;;;-216.83;83.93
50322;BME280;36227;53.366;-1.426;2022-09-21T12:00:25;75763.39;;;-217.07;81.66
50322;BME280;36227;53.366;-1.426;2022-09-21T12:05:21;75737.75;;;-218.02;79.25
50322;BME280;36227;53.366;-1.426;2022-09-21T12:07:53;75769.08;;;-217.78;80.36
50322;BME280;36227;53.366;-1.426;2022-09-21T12:10:13;75745.07;;;-217.54;78.78
50322;BME280;36227;53.366;-1.426;2022-09-21T12:12:36;75837.04;;;-216.83;79.17
50322;BME280;36227;53.366;-1.426;2022-09-21T12:14:59;75830.60;;;-216.83;79.09
50322;BME280;36227;53.366;-1.426;2022-09-21T12:17:25;75797.38;;;-216.83;79.98